메인 페이지
METAR-TAF:

METAR-TAF

공항 :

리브르빌, 가봉

위도: 00-27N, 경도: 009-25E, 고도: 12m

현재 날씨관측

예보는 12분 전, 08:30시(UTC)에 발표되었습니다.
남동6kt
온도 27°C
습도 89%
기압 1014 hPa
시정 10km 이상
고도 1000ft 상공 구름 보통

METAR: FOOL 040830Z 14006KT 9999 SCT010 27/25 Q1014 NOSIG

시각: 09:42 (08:42 UTC)

예보

예보는 3 시간 42분 전, 05:00시(UTC)에 발표되었습니다.
예보 대상 시간: 04일 06시부터 05일 12시까지 (UTC)
남남서6kt
시정: 8000m
고도 1000ft 상공 구름 보통
고도 1800ft 상공 구름 조금, 적란운.
고도 3000ft 상공 구름 많음
뇌우
전환 중
04일 07시부터 04일 09시까지 (UTC)
일시적
04일 14시부터 04일 19시까지 (UTC)
뇌우
확률 40% :
일시적
04일 21시부터 05일 05시까지 (UTC)
시정: 3500m
고도 1000ft 상공 구름 많음
고도 1800ft 상공 구름 조금, 적란운.
고도 2600ft 상공 흐림
뇌우, 비

TAF: FOOL 040500Z 0406/0512 20006KT 8000 TS SCT010 FEW018CB BKN030 BECMG 0407/0409 NSW TEMPO 0414/0419 TS PROB40 TEMPO 0421/0505 3500 TSRA BKN010 FEW018CB OVC026

4,000개 이상의 공항 관측 자료 및 예보 (METAR 및 TAF 보고).

지도상에서 검색 가능한 기상관측소가 노란 점과 빨간 점으로 표시되어 있습니다.

기상관측소 명을 보려면 표시 위로 마우스를 이동하세요.

날씨 관측과 예보를 보려면 클릭하세요.

지도 변경 : 확대하려면 엑스 표시가 있는 녹색 버튼, 축소하려면 빼기 표시가 있는 녹색 버튼, 다음 페이지의 지도를 보려면 녹색 화살표를 클릭하세요.


METAR-TAF: